createdAt,value
2023-06-29T00:01:39.145Z,19.32
2023-06-29T00:04:07.012Z,19.29
2023-06-29T00:06:37.558Z,19.38
2023-06-29T00:09:05.491Z,19.36
2023-06-29T00:11:33.252Z,19.29
2023-06-29T00:14:00.915Z,19.21
2023-06-29T00:16:31.847Z,19.17
2023-06-29T00:19:01.357Z,19.13
2023-06-29T00:21:29.686Z,19.10
2023-06-29T00:23:57.430Z,19.13
2023-06-29T00:26:30.251Z,19.04
2023-06-29T00:28:58.425Z,19.03
2023-06-29T00:31:26.178Z,18.89
2023-06-29T00:33:55.206Z,18.83
2023-06-29T00:36:22.926Z,18.84
2023-06-29T00:38:50.552Z,18.85
2023-06-29T00:41:18.297Z,18.83
2023-06-29T00:43:46.704Z,18.72
2023-06-29T00:46:15.305Z,18.71
2023-06-29T00:48:43.194Z,18.73
2023-06-29T00:51:13.464Z,18.62
2023-06-29T00:53:41.124Z,18.53
2023-06-29T00:56:08.960Z,18.43
2023-06-29T00:58:37.514Z,18.36
2023-06-29T01:01:05.320Z,18.34
2023-06-29T01:03:33.701Z,18.34
2023-06-29T01:06:07.058Z,18.37
2023-06-29T01:08:43.177Z,18.37
2023-06-29T01:11:11.963Z,18.37
2023-06-29T01:13:42.904Z,18.36
2023-06-29T01:16:12.618Z,18.28
2023-06-29T01:18:41.449Z,18.36
2023-06-29T01:21:09.417Z,18.20
2023-06-29T01:23:40.785Z,18.23
2023-06-29T01:26:13.465Z,18.01
2023-06-29T01:28:41.586Z,17.89
2023-06-29T01:31:10.730Z,17.91
2023-06-29T01:33:38.472Z,17.86
2023-06-29T01:36:13.373Z,17.93
2023-06-29T01:38:47.890Z,18.06
2023-06-29T01:41:17.939Z,17.99
2023-06-29T01:43:46.288Z,18.00
2023-06-29T01:46:14.780Z,17.82
2023-06-29T01:48:42.662Z,17.93
2023-06-29T01:51:10.766Z,18.00
2023-06-29T01:53:38.777Z,17.85
2023-06-29T01:56:07.156Z,17.82
2023-06-29T01:58:36.191Z,17.68
2023-06-29T02:01:03.951Z,17.79
2023-06-29T02:03:31.670Z,17.81
2023-06-29T02:05:59.333Z,17.78
2023-06-29T02:08:27.039Z,17.64
2023-06-29T02:10:54.974Z,17.76
2023-06-29T02:13:22.598Z,17.68
2023-06-29T02:15:51.540Z,17.71
2023-06-29T02:18:19.155Z,17.69
2023-06-29T02:20:46.811Z,17.67
2023-06-29T02:23:14.611Z,17.62
2023-06-29T02:25:42.550Z,17.60
2023-06-29T02:28:10.393Z,17.44
2023-06-29T02:30:38.033Z,17.52
2023-06-29T02:33:07.072Z,17.48
2023-06-29T02:35:34.715Z,17.39
2023-06-29T02:38:02.274Z,17.30
2023-06-29T02:40:29.936Z,17.18
2023-06-29T02:42:57.573Z,17.13
2023-06-29T02:45:25.600Z,17.02
2023-06-29T02:47:53.514Z,16.98
2023-06-29T02:50:22.991Z,16.92
2023-06-29T02:52:50.636Z,16.98
2023-06-29T02:55:18.286Z,16.88
2023-06-29T02:57:45.939Z,16.87
2023-06-29T03:00:14.663Z,16.92
2023-06-29T03:02:42.509Z,17.05
2023-06-29T03:05:10.886Z,17.02
2023-06-29T03:07:39.890Z,17.03
2023-06-29T03:10:08.678Z,17.06
2023-06-29T03:12:36.714Z,17.05
2023-06-29T03:15:04.639Z,17.00
2023-06-29T03:17:32.359Z,16.99
2023-06-29T03:20:00.251Z,17.01
2023-06-29T03:22:27.871Z,17.00
2023-06-29T03:24:56.866Z,16.96
2023-06-29T03:27:24.525Z,16.91
2023-06-29T03:29:54.633Z,16.83
2023-06-29T03:32:22.324Z,16.94
2023-06-29T03:34:50.019Z,16.85
2023-06-29T03:37:17.987Z,16.83
2023-06-29T03:39:45.614Z,16.83
2023-06-29T03:42:14.723Z,16.86
2023-06-29T03:44:42.464Z,16.90
2023-06-29T03:47:10.044Z,17.00
2023-06-29T03:49:37.726Z,17.00
2023-06-29T03:52:06.009Z,17.26
2023-06-29T03:54:33.606Z,17.30
2023-06-29T03:57:02.817Z,17.43
2023-06-29T03:59:31.842Z,17.53
2023-06-29T04:01:59.750Z,17.67
2023-06-29T04:04:27.417Z,17.87
2023-06-29T04:06:55.058Z,17.99
2023-06-29T04:09:22.727Z,18.32
2023-06-29T04:11:50.390Z,18.65
2023-06-29T04:14:18.068Z,18.98
2023-06-29T04:16:47.229Z,19.93
2023-06-29T04:19:16.963Z,20.95
2023-06-29T04:21:44.829Z,21.86
2023-06-29T04:24:12.477Z,23.02
2023-06-29T04:26:40.160Z,24.03
2023-06-29T04:29:07.876Z,24.62
2023-06-29T04:31:36.078Z,25.79
2023-06-29T04:34:06.073Z,26.08
2023-06-29T04:36:33.748Z,26.68
2023-06-29T04:39:02.155Z,27.05
2023-06-29T04:41:33.052Z,27.58
2023-06-29T04:44:01.560Z,28.10
2023-06-29T04:46:30.364Z,28.40
2023-06-29T04:48:58.088Z,28.10
2023-06-29T04:51:27.615Z,28.65
2023-06-29T04:53:55.411Z,28.29
2023-06-29T04:56:23.177Z,28.71
2023-06-29T04:58:50.953Z,29.65
2023-06-29T05:01:18.611Z,29.67
2023-06-29T05:03:46.463Z,28.47
2023-06-29T05:06:14.991Z,29.17
2023-06-29T05:08:44.112Z,28.11
2023-06-29T05:11:11.790Z,29.13
2023-06-29T05:13:40.631Z,30.56
2023-06-29T05:16:08.460Z,30.32
2023-06-29T05:18:37.105Z,30.04
2023-06-29T05:21:05.685Z,29.82
2023-06-29T05:23:33.621Z,29.64
2023-06-29T05:26:02.693Z,30.03
2023-06-29T05:28:30.368Z,30.49
2023-06-29T05:30:58.039Z,28.18
2023-06-29T05:33:25.861Z,29.53
2023-06-29T05:35:53.533Z,28.64
2023-06-29T05:38:21.390Z,28.85
2023-06-29T05:40:49.071Z,30.52
2023-06-29T05:43:18.079Z,28.29
2023-06-29T05:45:47.096Z,30.37
2023-06-29T05:48:14.767Z,30.22
2023-06-29T05:50:42.818Z,31.10
2023-06-29T05:53:10.707Z,31.80
2023-06-29T05:55:38.393Z,30.45
2023-06-29T05:58:05.992Z,31.32
2023-06-29T06:00:35.021Z,32.39
2023-06-29T06:03:02.811Z,31.60
2023-06-29T06:05:30.775Z,30.12
2023-06-29T06:07:58.396Z,30.34
2023-06-29T06:10:26.104Z,31.40
2023-06-29T06:12:53.835Z,31.24
2023-06-29T06:15:21.481Z,32.31
2023-06-29T06:17:50.727Z,32.51
2023-06-29T06:20:18.621Z,32.81
2023-06-29T06:22:46.563Z,33.19
2023-06-29T06:25:15.846Z,32.41
2023-06-29T06:27:43.597Z,32.44
2023-06-29T06:30:12.020Z,32.67
2023-06-29T06:32:40.889Z,32.99
2023-06-29T06:35:10.947Z,32.14
2023-06-29T06:37:39.445Z,31.90
2023-06-29T06:40:08.936Z,33.03
2023-06-29T06:42:37.006Z,33.00
2023-06-29T06:45:05.736Z,34.01
2023-06-29T06:47:34.178Z,34.58
2023-06-29T06:50:03.601Z,34.03
2023-06-29T06:52:32.630Z,33.22
2023-06-29T06:55:00.404Z,32.24
2023-06-29T06:57:28.195Z,31.64
2023-06-29T06:59:55.833Z,31.87
2023-06-29T07:02:23.514Z,32.04
2023-06-29T07:04:52.063Z,31.15
2023-06-29T07:07:19.805Z,32.28
2023-06-29T07:09:49.391Z,32.32
2023-06-29T07:12:16.979Z,33.20
2023-06-29T07:14:44.728Z,32.68
2023-06-29T07:17:12.430Z,32.81
2023-06-29T07:24:41.285Z,32.31
2023-06-29T07:27:10.307Z,33.27
2023-06-29T07:29:38.265Z,33.10
2023-06-29T07:32:06.651Z,33.44
2023-06-29T07:34:34.697Z,33.47
2023-06-29T07:37:02.695Z,34.96
2023-06-29T07:39:30.359Z,35.70
2023-06-29T07:41:58.060Z,35.68
2023-06-29T07:44:27.129Z,33.93
2023-06-29T07:46:54.975Z,34.07
2023-06-29T07:49:22.974Z,33.73
2023-06-29T07:51:50.942Z,32.78
2023-06-29T07:54:19.428Z,31.67
2023-06-29T07:59:17.663Z,31.28
2023-06-29T08:01:49.099Z,30.70
2023-06-29T08:04:17.510Z,31.73
2023-06-29T08:06:51.259Z,32.76
2023-06-29T08:09:22.038Z,33.62
2023-06-29T08:11:50.112Z,34.23
2023-06-29T08:14:17.731Z,34.22
2023-06-29T08:16:46.796Z,34.10
2023-06-29T08:19:15.480Z,33.74
2023-06-29T08:21:43.622Z,34.10
2023-06-29T08:24:11.193Z,31.25
2023-06-29T08:26:38.883Z,31.82
2023-06-29T08:29:06.460Z,32.98
2023-06-29T08:31:34.157Z,32.65
2023-06-29T08:34:03.335Z,32.32
2023-06-29T08:36:34.026Z,32.76
2023-06-29T08:39:02.105Z,32.22
2023-06-29T08:41:30.001Z,32.26
2023-06-29T08:43:57.726Z,30.79
2023-06-29T08:46:26.141Z,31.34
2023-06-29T08:48:54.405Z,32.13
2023-06-29T08:51:23.929Z,33.40
2023-06-29T08:53:52.573Z,32.95
2023-06-29T08:56:24.569Z,33.26
2023-06-29T08:58:53.322Z,31.02
2023-06-29T09:01:21.611Z,31.74
2023-06-29T09:03:51.412Z,32.86
2023-06-29T09:06:19.839Z,32.78
2023-06-29T09:08:48.913Z,32.47
2023-06-29T09:11:16.650Z,32.50
2023-06-29T09:13:44.223Z,31.85
2023-06-29T09:16:12.219Z,30.87
2023-06-29T09:18:39.947Z,29.82
2023-06-29T09:21:07.673Z,29.61
2023-06-29T09:23:35.660Z,29.42
2023-06-29T09:26:06.680Z,29.50
2023-06-29T09:28:36.911Z,29.21
2023-06-29T09:31:08.549Z,29.29
2023-06-29T09:33:36.246Z,29.82
2023-06-29T09:36:09.549Z,29.44
2023-06-29T09:38:38.545Z,30.05
2023-06-29T09:41:09.012Z,30.11
2023-06-29T09:43:36.750Z,30.70
2023-06-29T09:46:08.701Z,30.65
2023-06-29T09:51:20.559Z,31.01
2023-06-29T09:53:48.422Z,30.45
2023-06-29T09:56:18.251Z,30.12
2023-06-29T09:58:47.198Z,30.36
2023-06-29T10:01:17.299Z,30.85
2023-06-29T10:03:45.410Z,30.63
2023-06-29T10:06:17.499Z,30.27
2023-06-29T10:08:47.425Z,30.24
2023-06-29T10:11:17.311Z,30.28
2023-06-29T10:13:51.917Z,30.85
2023-06-29T10:16:22.220Z,30.09
2023-06-29T10:18:52.772Z,29.28
2023-06-29T10:21:20.537Z,29.43
2023-06-29T10:23:49.342Z,29.71
2023-06-29T10:26:19.527Z,30.01
2023-06-29T10:28:47.357Z,30.75
2023-06-29T10:31:19.518Z,30.28
2023-06-29T10:33:48.456Z,30.96
2023-06-29T10:36:18.139Z,31.32
2023-06-29T10:38:45.922Z,31.51
2023-06-29T10:41:28.232Z,31.64
2023-06-29T10:43:56.849Z,31.54
2023-06-29T10:46:46.625Z,30.47
2023-06-29T10:49:24.796Z,29.65
2023-06-29T10:51:54.072Z,30.03
2023-06-29T10:54:23.867Z,29.47
2023-06-29T10:57:03.221Z,29.50
2023-06-29T10:59:32.860Z,29.70
2023-06-29T11:02:00.775Z,29.50
2023-06-29T11:04:29.118Z,29.72
2023-06-29T11:06:56.963Z,29.77
2023-06-29T11:09:24.684Z,29.96
2023-06-29T11:11:52.416Z,30.25
2023-06-29T11:14:21.440Z,30.49
2023-06-29T11:16:49.524Z,30.63
2023-06-29T11:19:17.244Z,30.24
2023-06-29T11:21:44.912Z,30.17
2023-06-29T11:24:12.496Z,30.00
2023-06-29T11:26:40.145Z,29.93
2023-06-29T11:29:08.949Z,29.59
2023-06-29T11:31:38.068Z,29.85
2023-06-29T11:34:06.012Z,29.63
2023-06-29T11:36:37.383Z,29.08
2023-06-29T11:39:07.993Z,29.02
2023-06-29T11:41:35.952Z,28.65
2023-06-29T11:44:03.836Z,28.44
2023-06-29T11:46:34.732Z,28.52
2023-06-29T11:49:05.358Z,28.45
2023-06-29T11:51:34.258Z,28.43
2023-06-29T11:54:02.486Z,28.60
2023-06-29T11:56:37.631Z,28.60
2023-06-29T11:59:06.902Z,28.48
2023-06-29T12:01:36.179Z,28.45
2023-06-29T12:04:07.476Z,28.15
2023-06-29T12:06:35.605Z,27.79
2023-06-29T12:09:11.762Z,27.70
2023-06-29T12:11:40.501Z,27.61
2023-06-29T12:14:10.350Z,27.50
2023-06-29T12:19:15.213Z,27.37
2023-06-29T12:21:43.221Z,27.27
2023-06-29T12:24:10.907Z,27.14
2023-06-29T12:26:38.485Z,27.03
2023-06-29T12:29:06.050Z,26.88
2023-06-29T12:31:33.713Z,26.60
2023-06-29T12:34:01.441Z,26.67
2023-06-29T12:36:30.387Z,26.65
2023-06-29T12:38:58.003Z,26.42
2023-06-29T12:41:25.608Z,26.32
2023-06-29T12:43:53.256Z,26.29
2023-06-29T12:46:23.815Z,26.33
2023-06-29T12:48:51.432Z,26.20
2023-06-29T12:51:19.073Z,26.29
2023-06-29T12:53:48.089Z,26.33
2023-06-29T12:56:15.811Z,26.30
2023-06-29T12:58:43.554Z,26.34
2023-06-29T13:01:11.267Z,26.45
2023-06-29T13:03:39.066Z,26.51
2023-06-29T13:06:06.850Z,26.75
2023-06-29T13:08:34.729Z,26.93
2023-06-29T13:11:05.646Z,26.94
2023-06-29T13:13:33.376Z,26.89
2023-06-29T13:16:01.072Z,27.10
2023-06-29T13:18:28.834Z,27.42
2023-06-29T13:20:56.582Z,27.69
2023-06-29T13:23:24.252Z,27.79
2023-06-29T13:25:51.901Z,27.53
2023-06-29T13:28:21.261Z,27.40
2023-06-29T13:30:49.021Z,27.97
2023-06-29T13:33:16.742Z,28.23
2023-06-29T13:35:44.667Z,28.09
2023-06-29T13:38:12.700Z,27.97
2023-06-29T13:40:40.366Z,27.79
2023-06-29T13:43:08.154Z,28.03
2023-06-29T13:45:37.147Z,27.80
2023-06-29T13:48:05.470Z,27.69
2023-06-29T13:50:41.568Z,27.61
2023-06-29T13:53:09.936Z,27.81
2023-06-29T13:55:37.773Z,28.31
2023-06-29T13:58:05.559Z,28.38
2023-06-29T14:00:35.359Z,28.37
2023-06-29T14:03:04.764Z,28.66
2023-06-29T14:05:32.459Z,28.87
2023-06-29T14:08:00.362Z,28.82
2023-06-29T14:10:28.641Z,28.70
2023-06-29T14:12:56.338Z,28.36
2023-06-29T14:15:24.175Z,28.56
2023-06-29T14:17:51.917Z,28.85
2023-06-29T14:20:21.007Z,28.92
2023-06-29T14:22:48.634Z,28.93
2023-06-29T14:25:16.288Z,28.97
2023-06-29T14:27:44.082Z,28.78
2023-06-29T14:30:13.153Z,28.72
2023-06-29T14:32:40.959Z,28.93
2023-06-29T14:35:09.266Z,28.77
2023-06-29T14:37:38.290Z,28.34
2023-06-29T14:40:08.537Z,28.50
2023-06-29T14:42:37.228Z,28.30
2023-06-29T14:45:05.784Z,28.16
2023-06-29T14:47:33.525Z,28.60
2023-06-29T14:50:01.335Z,28.37
2023-06-29T14:52:28.933Z,28.45
2023-06-29T14:54:57.883Z,28.51
2023-06-29T14:57:25.467Z,28.59
2023-06-29T14:59:53.337Z,28.17
2023-06-29T15:02:21.001Z,28.27
2023-06-29T15:04:48.677Z,28.57
2023-06-29T15:07:16.356Z,28.70
2023-06-29T15:09:44.072Z,28.75
2023-06-29T15:12:13.076Z,28.64
2023-06-29T15:14:40.801Z,28.60
2023-06-29T15:17:08.507Z,28.44
2023-06-29T15:19:36.221Z,28.75
2023-06-29T15:22:04.094Z,29.05
2023-06-29T15:24:31.709Z,29.03
2023-06-29T15:26:59.427Z,29.22
2023-06-29T15:29:28.475Z,28.88
2023-06-29T15:31:56.254Z,29.16
2023-06-29T15:34:24.310Z,29.08
2023-06-29T15:36:52.009Z,29.17
2023-06-29T15:39:19.642Z,28.77
2023-06-29T15:41:50.996Z,28.90
2023-06-29T15:44:19.066Z,28.44
2023-06-29T15:46:53.525Z,28.62
2023-06-29T15:49:21.551Z,28.38
2023-06-29T15:51:49.511Z,27.91
2023-06-29T15:54:18.174Z,28.07
2023-06-29T15:56:45.963Z,27.76
2023-06-29T15:59:13.586Z,27.94
2023-06-29T16:01:41.872Z,27.89
2023-06-29T16:04:10.908Z,27.87
2023-06-29T16:06:38.654Z,27.81
2023-06-29T16:09:06.324Z,27.57
2023-06-29T16:11:33.996Z,27.57
2023-06-29T16:14:01.659Z,27.54
2023-06-29T16:16:29.701Z,27.51
2023-06-29T16:18:57.945Z,27.70
2023-06-29T16:21:27.424Z,27.76
2023-06-29T16:23:55.172Z,27.57
2023-06-29T16:26:22.805Z,27.50
2023-06-29T16:28:50.567Z,27.69
2023-06-29T16:31:18.335Z,27.59
2023-06-29T16:33:46.082Z,27.47
2023-06-29T16:36:13.769Z,27.42
2023-06-29T16:38:42.822Z,27.51
2023-06-29T16:41:12.249Z,27.60
2023-06-29T16:43:40.220Z,27.72
2023-06-29T16:46:07.892Z,27.71
2023-06-29T16:48:35.642Z,27.86
2023-06-29T16:51:03.406Z,27.86
2023-06-29T16:53:31.076Z,27.90
2023-06-29T16:56:00.050Z,27.56
2023-06-29T16:58:28.633Z,27.44
2023-06-29T17:00:56.357Z,27.49
2023-06-29T17:03:24.086Z,27.52
2023-06-29T17:05:51.826Z,27.39
2023-06-29T17:08:19.504Z,27.31
2023-06-29T17:10:47.255Z,27.37
2023-06-29T17:13:16.218Z,27.43
2023-06-29T17:15:44.445Z,27.45
2023-06-29T17:18:12.479Z,27.45
2023-06-29T17:20:40.129Z,27.32
2023-06-29T17:23:08.289Z,27.27
2023-06-29T17:25:35.877Z,27.09
2023-06-29T17:28:03.645Z,27.02
2023-06-29T17:30:32.625Z,27.07
2023-06-29T17:33:00.316Z,27.04
2023-06-29T17:35:27.965Z,27.02
2023-06-29T17:37:55.624Z,26.90
2023-06-29T17:40:23.362Z,26.89
2023-06-29T17:42:50.953Z,26.78
2023-06-29T17:45:18.960Z,26.65
2023-06-29T17:47:47.982Z,26.66
2023-06-29T17:50:15.728Z,26.59
2023-06-29T17:52:45.157Z,26.43
2023-06-29T17:55:13.124Z,26.25
2023-06-29T17:57:40.915Z,26.13
2023-06-29T18:00:09.768Z,26.26
2023-06-29T18:02:38.121Z,26.06
2023-06-29T18:05:07.565Z,26.08
2023-06-29T18:07:35.539Z,26.07
2023-06-29T18:10:06.068Z,25.85
2023-06-29T18:12:33.687Z,25.85
2023-06-29T18:15:01.408Z,25.89
2023-06-29T18:17:29.115Z,25.76
2023-06-29T18:19:56.828Z,25.61
2023-06-29T18:22:26.146Z,25.65
2023-06-29T18:24:53.989Z,25.49
2023-06-29T18:27:23.242Z,25.41
2023-06-29T18:29:50.989Z,25.26
2023-06-29T18:32:19.578Z,25.18
2023-06-29T18:34:47.902Z,24.99
2023-06-29T18:37:16.792Z,25.04
2023-06-29T18:39:45.895Z,24.96
2023-06-29T18:42:13.525Z,24.95
2023-06-29T18:44:43.018Z,24.86
2023-06-29T18:47:13.241Z,24.89
2023-06-29T18:49:51.664Z,24.85
2023-06-29T18:52:21.258Z,24.93
2023-06-29T18:54:51.962Z,24.84
2023-06-29T18:57:19.555Z,24.75
2023-06-29T18:59:48.502Z,24.70
2023-06-29T19:02:16.712Z,24.61
2023-06-29T19:04:44.386Z,24.48
2023-06-29T19:07:15.940Z,24.44
2023-06-29T19:09:43.969Z,24.42
2023-06-29T19:12:14.145Z,24.34
2023-06-29T19:14:41.751Z,24.28
2023-06-29T19:17:10.547Z,24.18
2023-06-29T19:19:39.011Z,24.11
2023-06-29T19:22:08.322Z,24.10
2023-06-29T19:24:35.921Z,23.97
2023-06-29T19:27:06.503Z,23.93
2023-06-29T19:29:35.475Z,23.88
2023-06-29T19:32:03.126Z,23.88
2023-06-29T19:34:32.410Z,23.85
2023-06-29T19:37:02.289Z,23.81
2023-06-29T19:39:29.975Z,23.71
2023-06-29T19:41:57.769Z,23.60
2023-06-29T19:44:25.407Z,23.57
2023-06-29T19:46:54.442Z,23.54
2023-06-29T19:49:22.140Z,23.47
2023-06-29T19:51:50.000Z,23.45
2023-06-29T19:54:17.571Z,23.38
2023-06-29T19:56:45.174Z,23.27
2023-06-29T19:59:12.848Z,23.21
2023-06-29T20:01:40.474Z,23.19
2023-06-29T20:04:09.499Z,23.16
2023-06-29T20:06:37.537Z,23.21
2023-06-29T20:09:05.675Z,23.18
2023-06-29T20:11:33.328Z,23.12
2023-06-29T20:14:01.004Z,23.07
2023-06-29T20:16:28.835Z,22.96
2023-06-29T20:18:56.748Z,22.91
2023-06-29T20:21:25.803Z,22.88
2023-06-29T20:23:53.739Z,22.92
2023-06-29T20:26:21.567Z,22.89
2023-06-29T20:28:49.253Z,22.84
2023-06-29T20:31:16.940Z,22.87
2023-06-29T20:33:44.621Z,22.85
2023-06-29T20:36:14.795Z,22.76
2023-06-29T20:38:43.907Z,22.70
2023-06-29T20:41:11.672Z,22.65
2023-06-29T20:43:39.332Z,22.61
2023-06-29T20:46:07.554Z,22.60
2023-06-29T20:48:35.285Z,22.56
2023-06-29T20:51:16.251Z,22.49
2023-06-29T20:53:46.636Z,22.43
2023-06-29T20:56:14.209Z,22.39
2023-06-29T20:58:42.086Z,22.43
2023-06-29T21:01:09.830Z,22.42
2023-06-29T21:03:39.109Z,22.39
2023-06-29T21:06:06.814Z,22.40
2023-06-29T21:08:34.416Z,22.37
2023-06-29T21:11:03.710Z,22.31
2023-06-29T21:13:31.736Z,22.27
2023-06-29T21:15:59.616Z,22.21
2023-06-29T21:18:28.015Z,22.24
2023-06-29T21:20:56.119Z,22.29
2023-06-29T21:23:24.050Z,22.23
2023-06-29T21:25:52.230Z,22.18
2023-06-29T21:30:49.523Z,22.16
2023-06-29T21:33:17.720Z,22.16
2023-06-29T21:35:46.016Z,22.08
2023-06-29T21:38:14.169Z,22.06
2023-06-29T21:40:41.749Z,22.03
2023-06-29T21:43:09.453Z,22.04
2023-06-29T21:45:38.589Z,22.00
2023-06-29T21:48:07.765Z,21.98
2023-06-29T21:50:35.579Z,21.97
2023-06-29T21:53:03.260Z,21.92
2023-06-29T21:55:30.972Z,21.88
2023-06-29T21:57:58.575Z,21.80
2023-06-29T22:00:26.725Z,21.77
2023-06-29T22:02:56.891Z,21.84
2023-06-29T22:05:24.706Z,21.82
2023-06-29T22:07:52.443Z,21.84
2023-06-29T22:10:20.204Z,21.91
2023-06-29T22:12:49.144Z,21.94
2023-06-29T22:15:16.781Z,21.84
2023-06-29T22:17:44.779Z,21.82
2023-06-29T22:20:16.839Z,21.73
2023-06-29T22:22:45.418Z,21.69
2023-06-29T22:25:13.054Z,21.72
2023-06-29T22:27:40.683Z,21.71
2023-06-29T22:30:09.369Z,21.70
2023-06-29T22:32:37.346Z,21.63
2023-06-29T22:35:05.860Z,21.57
2023-06-29T22:37:34.934Z,21.52
2023-06-29T22:40:06.053Z,21.46
2023-06-29T22:42:33.725Z,21.40
2023-06-29T22:45:01.355Z,21.38
2023-06-29T22:47:29.156Z,21.32
2023-06-29T22:49:56.812Z,21.23
2023-06-29T22:52:24.443Z,21.22
2023-06-29T22:54:53.991Z,21.20
2023-06-29T22:57:22.964Z,21.20
2023-06-29T22:59:51.240Z,21.18
2023-06-29T23:02:19.392Z,21.19
2023-06-29T23:04:47.107Z,21.23
2023-06-29T23:07:15.241Z,21.22
2023-06-29T23:09:42.925Z,21.24
2023-06-29T23:12:12.348Z,21.23
2023-06-29T23:14:40.021Z,21.22
2023-06-29T23:17:07.750Z,21.22
2023-06-29T23:19:36.966Z,21.21
2023-06-29T23:22:06.477Z,21.33
2023-06-29T23:24:36.108Z,21.37
2023-06-29T23:27:03.742Z,21.27
2023-06-29T23:29:32.652Z,21.20
2023-06-29T23:32:00.286Z,21.20
2023-06-29T23:34:27.879Z,21.08
2023-06-29T23:36:55.473Z,21.13
2023-06-29T23:39:23.122Z,20.97
2023-06-29T23:41:50.824Z,20.97
2023-06-29T23:44:18.413Z,20.93
2023-06-29T23:46:50.464Z,20.70
2023-06-29T23:49:19.462Z,20.58
2023-06-29T23:51:48.352Z,20.60
2023-06-29T23:54:16.492Z,20.49
2023-06-29T23:56:46.849Z,20.48
2023-06-29T23:59:14.477Z,20.51
